Ann Arbor, MI

8:57 AM EST on January 31, 2015 (GMT -0500)
Walker Briar Works | Change Station
CLOSE
Current Station
Personal Weather Station
Location: Ann Arbor, MI
Elevation: 961 ft
Nearby Weather Stations
Active Advisory: Winter Storm Watch

Elev 961 ft 42.26 °N, 83.77 °W | Updated 7 minutes ago

Overcast
Overcast
15.1 °F
Feels Like 15 °F
N
0.0
Wind Variable Wind from SE
Gusts 1.6 mph

Today
High -- | Low -- °F
--% Chance of Precip.
Yesterday
High -- | Low -- °F
Precip. -- in
7:49 AM 5:47 PM
Waxing Gibbous, 89% visible
Pressure 30.33 in
Visibility 9.0 miles
Clouds Overcast 2300 ft
Windchill 15 °F
Dew Point 12 °F
Humidity 89%
Rainfall 0.00 in
Snow Depth Not available.
UV 0 out of 12
Pollen .10 out of 12
Air Quality Not available.
Flu Activity Not available.
METAR KARB 311353Z 00000KT 9SM OVC023 M09/M11 A3027 RMK AO2 SLP269 T10891106

More Conditions Fewer Conditions

Pressure 30.33 in
Visibility 9.0 miles
Clouds Overcast 2300 ft
Windchill 15 °F
Dew Point 12 °F
Humidity 89%
Rainfall 0.00 in
Snow Depth Not available.
UV 0 out of 12
Pollen .10 out of 12
Air Quality Not available.
Flu Activity Not available.
METAR KARB 311353Z 00000KT 9SM OVC023 M09/M11 A3027 RMK AO2 SLP269 T10891106

More Conditions Fewer Conditions

10-Day Weather Forecast

Almanac

Astronomy

Jan. 31, 2015 Rise Set
Actual Time
Civil Twilight
Nautical Twilight
Astronomical Twilight
Moon
Length of Visible Light
Length of Day
Tomorrow will be .
, % of the Moon is Illuminated

Today's Extremes

State Highs State Lows

Community

WunderPhotos

Upload Photos

1,792,048 photos uploaded!

WunderBlogs® & News

Nearby

Air Quality

  Air Quality AQ Index Pollutant
Not available.

Snow Depth

Station Depth Elevation

Earthquake Activity

City Distance Mag. Time & Date
Minimum magnitude displayed is 2.5.

Coastal Water Temperatures

Place Temperature

Nearby Weather Stations